createdAt,value
2023-04-20T00:00:57.294Z,1.03
2023-04-20T00:02:05.603Z,0.90
2023-04-20T00:03:08.170Z,0.80
2023-04-20T00:04:10.194Z,0.80
2023-04-20T00:05:12.775Z,1.05
2023-04-20T00:06:15.525Z,0.80
2023-04-20T00:07:17.446Z,0.83
2023-04-20T00:08:19.429Z,0.82
2023-04-20T00:09:21.338Z,1.00
2023-04-20T00:10:23.200Z,1.00
2023-04-20T00:11:25.323Z,1.02
2023-04-20T00:12:27.238Z,1.05
2023-04-20T00:13:29.060Z,0.77
2023-04-20T00:14:31.038Z,0.90
2023-04-20T00:15:33.706Z,1.10
2023-04-20T00:16:35.745Z,1.00
2023-04-20T00:17:39.540Z,1.00
2023-04-20T00:18:41.541Z,0.80
2023-04-20T00:19:43.378Z,0.90
2023-04-20T00:20:45.830Z,1.00
2023-04-20T00:21:48.844Z,1.00
2023-04-20T00:22:50.797Z,1.20
2023-04-20T00:23:52.851Z,1.13
2023-04-20T00:24:54.718Z,1.10
2023-04-20T00:25:56.688Z,0.80
2023-04-20T00:26:58.568Z,1.10
2023-04-20T00:28:00.652Z,0.90
2023-04-20T00:29:02.699Z,1.27
2023-04-20T00:30:05.201Z,0.80
2023-04-20T00:31:07.043Z,0.83
2023-04-20T00:32:08.889Z,0.97
2023-04-20T00:33:10.820Z,0.88
2023-04-20T00:34:12.639Z,0.80
2023-04-20T00:35:14.742Z,0.93
2023-04-20T00:36:16.637Z,1.00
2023-04-20T00:37:18.411Z,0.90
2023-04-20T00:38:20.365Z,0.83
2023-04-20T00:39:22.194Z,0.90
2023-04-20T00:40:24.022Z,0.67
2023-04-20T00:41:25.988Z,0.60
2023-04-20T00:42:27.883Z,1.13
2023-04-20T00:43:29.690Z,0.93
2023-04-20T00:44:31.513Z,0.90
2023-04-20T00:45:33.350Z,0.80
2023-04-20T00:46:35.306Z,0.77
2023-04-20T00:47:37.312Z,0.70
2023-04-20T00:48:39.128Z,0.87
2023-04-20T00:49:41.113Z,0.80
2023-04-20T00:50:42.989Z,0.70
2023-04-20T00:51:45.139Z,1.13
2023-04-20T00:52:47.631Z,0.80
2023-04-20T00:53:49.731Z,0.70
2023-04-20T00:54:51.709Z,0.90
2023-04-20T00:55:53.753Z,0.93
2023-04-20T00:56:58.054Z,0.93
2023-04-20T00:57:59.962Z,0.80
2023-04-20T00:59:02.538Z,0.80
2023-04-20T01:00:07.391Z,1.17
2023-04-20T01:01:11.541Z,0.80
2023-04-20T01:02:13.433Z,0.80
2023-04-20T01:03:15.539Z,1.00
2023-04-20T01:04:18.585Z,0.80
2023-04-20T01:05:21.593Z,0.98
2023-04-20T01:06:23.466Z,0.80
2023-04-20T01:07:25.310Z,0.90
2023-04-20T01:08:27.881Z,0.73
2023-04-20T01:09:31.021Z,1.00
2023-04-20T01:10:32.910Z,0.95
2023-04-20T01:11:34.817Z,0.87
2023-04-20T01:12:37.248Z,0.90
2023-04-20T01:13:39.110Z,0.97
2023-04-20T01:14:41.149Z,0.90
2023-04-20T01:15:43.035Z,1.00
2023-04-20T01:16:47.233Z,1.10
2023-04-20T01:17:49.574Z,0.80
2023-04-20T01:18:51.631Z,0.80
2023-04-20T01:19:53.592Z,0.60
2023-04-20T01:20:55.573Z,0.77
2023-04-20T01:21:57.424Z,0.87
2023-04-20T01:22:59.242Z,0.83
2023-04-20T01:24:01.468Z,0.80
2023-04-20T01:25:03.431Z,0.93
2023-04-20T01:26:10.684Z,0.90
2023-04-20T01:27:17.073Z,0.70
2023-04-20T01:28:18.879Z,0.90
2023-04-20T01:29:20.998Z,1.10
2023-04-20T01:30:22.824Z,0.60
2023-04-20T01:31:24.811Z,0.80
2023-04-20T01:32:27.796Z,0.80
2023-04-20T01:33:30.205Z,0.73
2023-04-20T01:34:32.339Z,0.97
2023-04-20T01:35:34.196Z,1.10
2023-04-20T01:36:36.278Z,0.77
2023-04-20T01:37:40.057Z,0.93
2023-04-20T01:38:42.034Z,0.80
2023-04-20T01:39:45.751Z,0.93
2023-04-20T01:40:47.967Z,0.70
2023-04-20T01:41:50.134Z,0.80
2023-04-20T01:42:51.995Z,0.73
2023-04-20T01:43:53.944Z,0.90
2023-04-20T01:44:55.816Z,0.70
2023-04-20T01:45:57.795Z,0.70
2023-04-20T01:46:59.822Z,0.83
2023-04-20T01:48:02.377Z,1.10
2023-04-20T01:49:04.331Z,0.80
2023-04-20T01:50:06.894Z,1.00
2023-04-20T01:51:09.622Z,0.73
2023-04-20T01:52:11.465Z,0.87
2023-04-20T01:53:13.701Z,1.00
2023-04-20T01:54:15.594Z,0.87
2023-04-20T01:55:19.562Z,0.83
2023-04-20T01:56:21.983Z,0.90
2023-04-20T01:57:23.814Z,0.70
2023-04-20T01:58:26.146Z,0.80
2023-04-20T01:59:28.027Z,0.80
2023-04-20T02:00:29.916Z,0.80
2023-04-20T02:01:31.816Z,0.73
2023-04-20T02:02:33.835Z,0.87
2023-04-20T02:03:35.884Z,0.80
2023-04-20T02:04:37.816Z,0.70
2023-04-20T02:05:39.668Z,0.90
2023-04-20T02:06:41.472Z,0.80
2023-04-20T02:07:43.440Z,0.97
2023-04-20T02:08:45.280Z,0.97
2023-04-20T02:09:47.309Z,0.80
2023-04-20T02:10:49.185Z,0.93
2023-04-20T02:11:51.104Z,0.80
2023-04-20T02:12:53.033Z,0.90
2023-04-20T02:13:54.889Z,0.90
2023-04-20T02:14:56.733Z,1.17
2023-04-20T02:15:58.598Z,0.87
2023-04-20T02:17:01.119Z,0.90
2023-04-20T02:18:03.559Z,0.90
2023-04-20T02:19:05.450Z,0.73
2023-04-20T02:20:11.338Z,0.93
2023-04-20T02:21:13.414Z,1.00
2023-04-20T02:22:15.513Z,0.80
2023-04-20T02:23:17.333Z,0.80
2023-04-20T02:24:19.172Z,0.63
2023-04-20T02:25:21.232Z,0.80
2023-04-20T02:26:23.688Z,0.63
2023-04-20T02:27:25.684Z,0.73
2023-04-20T02:28:27.575Z,0.80
2023-04-20T02:29:29.472Z,1.03
2023-04-20T02:30:31.566Z,0.90
2023-04-20T02:31:34.320Z,0.80
2023-04-20T02:32:36.503Z,0.97
2023-04-20T02:33:38.712Z,0.70
2023-04-20T02:34:40.584Z,0.80
2023-04-20T02:35:42.426Z,0.80
2023-04-20T02:36:44.348Z,0.70
2023-04-20T02:37:46.602Z,0.70
2023-04-20T02:38:48.520Z,0.63
2023-04-20T02:39:50.337Z,0.83
2023-04-20T02:40:52.143Z,0.80
2023-04-20T02:41:53.988Z,0.70
2023-04-20T02:42:55.964Z,0.80
2023-04-20T02:43:57.727Z,0.97
2023-04-20T02:44:59.748Z,0.80
2023-04-20T02:46:01.702Z,0.70
2023-04-20T02:47:03.735Z,0.67
2023-04-20T02:48:06.384Z,0.67
2023-04-20T02:49:08.260Z,0.70
2023-04-20T02:50:11.078Z,1.00
2023-04-20T02:51:12.895Z,0.90
2023-04-20T02:52:15.163Z,0.67
2023-04-20T02:53:17.017Z,0.60
2023-04-20T02:54:18.880Z,0.63
2023-04-20T02:55:20.868Z,0.80
2023-04-20T02:56:22.898Z,0.80
2023-04-20T02:57:25.533Z,0.80
2023-04-20T02:58:27.428Z,0.80
2023-04-20T02:59:29.434Z,0.93
2023-04-20T03:00:31.503Z,0.53
2023-04-20T03:01:33.608Z,0.90
2023-04-20T03:02:37.079Z,0.60
2023-04-20T03:03:39.235Z,0.90
2023-04-20T03:04:41.385Z,0.80
2023-04-20T03:05:43.993Z,0.83
2023-04-20T03:06:45.818Z,0.90
2023-04-20T03:07:47.679Z,0.67
2023-04-20T03:08:49.614Z,0.80
2023-04-20T03:09:51.671Z,0.90
2023-04-20T03:10:53.672Z,0.77
2023-04-20T03:11:55.949Z,0.70
2023-04-20T03:12:57.924Z,1.10
2023-04-20T03:13:59.746Z,1.13
2023-04-20T03:15:01.785Z,0.97
2023-04-20T03:16:05.021Z,0.80
2023-04-20T03:17:07.130Z,0.83
2023-04-20T03:18:09.089Z,0.70
2023-04-20T03:19:11.162Z,0.70
2023-04-20T03:20:14.807Z,1.10
2023-04-20T03:21:16.653Z,0.90
2023-04-20T03:22:21.356Z,1.00
2023-04-20T03:23:23.306Z,0.80
2023-04-20T03:24:25.217Z,0.90
2023-04-20T03:25:27.265Z,0.90
2023-04-20T03:26:29.210Z,1.00
2023-04-20T03:27:31.029Z,0.60
2023-04-20T03:28:32.877Z,0.90
2023-04-20T03:29:34.805Z,0.77
2023-04-20T03:30:36.681Z,0.50
2023-04-20T03:31:38.505Z,0.90
2023-04-20T03:32:41.775Z,0.80
2023-04-20T03:33:43.697Z,0.70
2023-04-20T03:34:45.645Z,0.80
2023-04-20T03:35:47.496Z,0.90
2023-04-20T03:36:49.328Z,0.60
2023-04-20T03:37:51.165Z,0.93
2023-04-20T03:38:53.067Z,0.80
2023-04-20T03:39:54.847Z,0.77
2023-04-20T03:40:56.725Z,1.03
2023-04-20T03:41:59.172Z,1.00
2023-04-20T03:43:01.322Z,1.00
2023-04-20T03:44:03.328Z,0.90
2023-04-20T03:45:07.491Z,1.00
2023-04-20T03:46:09.434Z,1.20
2023-04-20T03:47:11.384Z,1.10
2023-04-20T03:48:13.257Z,1.20
2023-04-20T03:49:15.289Z,0.87
2023-04-20T03:50:17.276Z,1.10
2023-04-20T03:51:19.241Z,1.00
2023-04-20T03:52:21.488Z,0.80
2023-04-20T03:53:23.458Z,1.30
2023-04-20T03:54:25.329Z,1.00
2023-04-20T03:55:27.200Z,1.20
2023-04-20T03:56:29.018Z,0.97
2023-04-20T03:57:30.924Z,1.20
2023-04-20T03:58:32.932Z,1.03
2023-04-20T03:59:34.750Z,0.90
2023-04-20T04:00:36.658Z,1.00
2023-04-20T04:01:42.271Z,0.70
2023-04-20T04:02:44.366Z,1.13
2023-04-20T04:03:46.457Z,1.10
2023-04-20T04:04:48.560Z,1.30
2023-04-20T04:05:50.831Z,1.17
2023-04-20T04:06:52.602Z,1.10
2023-04-20T04:07:54.844Z,1.13
2023-04-20T04:08:56.731Z,0.87
2023-04-20T04:09:58.632Z,1.00
2023-04-20T04:11:00.946Z,1.10
2023-04-20T04:12:04.780Z,1.20
2023-04-20T04:13:06.670Z,1.20
2023-04-20T04:14:08.547Z,0.90
2023-04-20T04:15:12.089Z,1.10
2023-04-20T04:16:13.953Z,1.00
2023-04-20T04:17:15.938Z,1.10
2023-04-20T04:18:17.916Z,1.50
2023-04-20T04:19:19.998Z,1.13
2023-04-20T04:20:22.057Z,1.20
2023-04-20T04:21:23.930Z,0.80
2023-04-20T04:22:25.711Z,0.93
2023-04-20T04:23:27.696Z,1.00
2023-04-20T04:24:29.539Z,1.07
2023-04-20T04:25:31.361Z,1.10
2023-04-20T04:26:33.644Z,1.00
2023-04-20T04:27:35.541Z,1.20
2023-04-20T04:28:37.648Z,0.90
2023-04-20T04:29:41.894Z,1.23
2023-04-20T04:30:43.824Z,0.90
2023-04-20T04:31:45.844Z,1.10
2023-04-20T04:32:49.001Z,1.20
2023-04-20T04:33:51.260Z,1.10
2023-04-20T04:34:53.406Z,1.10
2023-04-20T04:35:55.410Z,0.90
2023-04-20T04:36:58.033Z,1.20
2023-04-20T04:38:00.149Z,1.00
2023-04-20T04:39:01.992Z,0.93
2023-04-20T04:40:06.482Z,0.87
2023-04-20T04:41:08.284Z,0.90
2023-04-20T04:42:10.293Z,1.00
2023-04-20T04:43:12.391Z,1.00
2023-04-20T04:44:15.834Z,0.90
2023-04-20T04:45:18.515Z,1.20
2023-04-20T04:46:21.146Z,0.93
2023-04-20T04:47:23.559Z,1.00
2023-04-20T04:48:25.651Z,1.20
2023-04-20T04:49:27.585Z,1.13
2023-04-20T04:50:29.451Z,0.87
2023-04-20T04:51:31.681Z,1.10
2023-04-20T04:52:34.152Z,1.03
2023-04-20T04:53:36.978Z,1.23
2023-04-20T04:54:39.106Z,1.00
2023-04-20T04:55:41.122Z,1.00
2023-04-20T04:56:42.911Z,0.90
2023-04-20T04:57:44.772Z,1.00
2023-04-20T04:58:46.678Z,1.20
2023-04-20T04:59:49.011Z,1.10
2023-04-20T05:00:51.261Z,0.90
2023-04-20T05:01:53.184Z,1.30
2023-04-20T05:02:55.707Z,1.33
2023-04-20T05:03:57.716Z,1.10
2023-04-20T05:04:59.680Z,1.20
2023-04-20T05:06:01.808Z,1.00
2023-04-20T05:07:03.880Z,0.97
2023-04-20T05:08:06.022Z,1.00
2023-04-20T05:09:08.201Z,1.00
2023-04-20T05:10:10.208Z,0.97
2023-04-20T05:11:12.100Z,0.70
2023-04-20T05:12:13.959Z,0.87
2023-04-20T05:13:15.973Z,1.13
2023-04-20T05:14:17.887Z,0.80
2023-04-20T05:15:19.711Z,1.10
2023-04-20T05:16:21.587Z,0.90
2023-04-20T05:17:23.479Z,1.00
2023-04-20T05:18:25.365Z,1.00
2023-04-20T05:19:27.356Z,1.10
2023-04-20T05:20:29.502Z,1.03
2023-04-20T05:21:32.701Z,1.10
2023-04-20T05:22:34.560Z,0.73
2023-04-20T05:23:36.417Z,0.87
2023-04-20T05:24:38.330Z,1.00
2023-04-20T05:25:40.602Z,1.10
2023-04-20T05:26:42.533Z,0.90
2023-04-20T05:27:44.615Z,0.80
2023-04-20T05:28:46.511Z,1.10
2023-04-20T05:29:48.882Z,1.17
2023-04-20T05:30:50.767Z,1.10
2023-04-20T05:31:52.716Z,0.90
2023-04-20T05:32:54.732Z,1.00
2023-04-20T05:33:56.647Z,0.90
2023-04-20T05:34:58.514Z,0.80
2023-04-20T05:36:00.382Z,0.90
2023-04-20T05:37:05.693Z,0.80
2023-04-20T05:38:07.620Z,0.90
2023-04-20T05:39:10.468Z,0.90
2023-04-20T05:40:12.961Z,0.80
2023-04-20T05:41:14.868Z,1.00
2023-04-20T05:42:16.703Z,1.17
2023-04-20T05:43:19.237Z,1.00
2023-04-20T05:44:21.104Z,0.90
2023-04-20T05:45:23.198Z,0.90
2023-04-20T05:46:25.212Z,0.97
2023-04-20T05:47:27.617Z,1.00
2023-04-20T05:48:30.267Z,1.13
2023-04-20T05:49:33.074Z,0.83
2023-04-20T05:50:34.948Z,0.80
2023-04-20T05:51:36.776Z,1.20
2023-04-20T05:52:38.660Z,0.80
2023-04-20T05:53:40.974Z,0.80
2023-04-20T05:54:43.197Z,0.90
2023-04-20T05:55:45.274Z,0.83
2023-04-20T05:56:47.046Z,1.17
2023-04-20T05:57:48.902Z,1.03
2023-04-20T05:58:50.950Z,0.93
2023-04-20T05:59:53.088Z,0.97
2023-04-20T06:00:55.007Z,1.03
2023-04-20T06:01:57.464Z,0.80
2023-04-20T06:02:59.686Z,0.90
2023-04-20T06:04:01.867Z,0.90
2023-04-20T06:05:04.527Z,0.73
2023-04-20T06:06:07.035Z,0.90
2023-04-20T06:07:08.954Z,1.20
2023-04-20T06:08:10.802Z,0.80
2023-04-20T06:09:12.645Z,1.00
2023-04-20T06:10:14.656Z,0.90
2023-04-20T06:11:16.954Z,1.10
2023-04-20T06:12:18.776Z,1.00
2023-04-20T06:13:20.923Z,0.70
2023-04-20T06:14:22.786Z,1.00
2023-04-20T06:15:24.683Z,0.90
2023-04-20T06:16:26.726Z,0.80
2023-04-20T06:17:28.698Z,0.83
2023-04-20T06:18:30.729Z,1.00
2023-04-20T06:19:32.516Z,0.90
2023-04-20T06:20:34.361Z,0.73
2023-04-20T06:21:36.734Z,0.90
2023-04-20T06:22:46.932Z,1.00
2023-04-20T06:23:49.376Z,0.87
2023-04-20T06:24:51.311Z,0.90
2023-04-20T06:25:53.284Z,1.07
2023-04-20T06:26:55.127Z,0.97
2023-04-20T06:27:57.071Z,0.97
2023-04-20T06:28:58.898Z,0.80
2023-04-20T06:30:00.885Z,1.00
2023-04-20T06:31:04.730Z,1.03
2023-04-20T06:32:06.612Z,1.00
2023-04-20T06:33:10.284Z,0.80
2023-04-20T06:34:14.969Z,0.80
2023-04-20T06:35:16.882Z,0.80
2023-04-20T06:36:18.746Z,0.80
2023-04-20T06:37:20.668Z,0.80
2023-04-20T06:38:23.872Z,1.00
2023-04-20T06:39:25.861Z,1.00
2023-04-20T06:40:29.135Z,0.93
2023-04-20T06:41:30.923Z,1.37
2023-04-20T06:42:32.788Z,1.10
2023-04-20T06:43:34.680Z,0.97
2023-04-20T06:44:36.570Z,0.90
2023-04-20T06:45:38.479Z,0.90
2023-04-20T06:46:40.467Z,0.93
2023-04-20T06:47:42.372Z,0.83
2023-04-20T06:48:44.273Z,1.17
2023-04-20T06:49:46.099Z,1.00
2023-04-20T06:50:49.952Z,0.90
2023-04-20T06:51:52.354Z,1.10
2023-04-20T06:52:54.218Z,0.90
2023-04-20T06:53:56.630Z,1.13
2023-04-20T06:55:02.211Z,1.20
2023-04-20T06:56:04.174Z,1.10
2023-04-20T06:57:06.188Z,1.17
2023-04-20T06:58:08.189Z,1.33
2023-04-20T06:59:10.145Z,0.90
2023-04-20T07:00:12.862Z,1.17
2023-04-20T07:01:14.811Z,1.00
2023-04-20T07:02:16.834Z,1.00
2023-04-20T07:03:19.365Z,1.10
2023-04-20T07:04:21.695Z,1.17
2023-04-20T07:05:24.469Z,1.20
2023-04-20T07:06:28.593Z,0.90
2023-04-20T07:07:30.444Z,1.20
2023-04-20T07:08:32.315Z,1.40
2023-04-20T07:09:34.166Z,1.10
2023-04-20T07:10:36.033Z,1.17
2023-04-20T07:11:37.920Z,1.30
2023-04-20T07:12:42.846Z,1.00
2023-04-20T07:13:45.549Z,1.03
2023-04-20T07:14:47.461Z,1.27
2023-04-20T07:15:49.264Z,1.17
2023-04-20T07:16:54.836Z,1.30
2023-04-20T07:17:56.806Z,1.10
2023-04-20T07:18:59.049Z,1.20
2023-04-20T07:20:08.541Z,1.00
2023-04-20T07:21:10.318Z,1.40
2023-04-20T07:22:12.120Z,1.60
2023-04-20T07:23:13.939Z,1.50
2023-04-20T07:24:15.800Z,1.60
2023-04-20T07:25:18.188Z,1.23
2023-04-20T07:26:20.034Z,1.40
2023-04-20T07:27:21.897Z,1.30
2023-04-20T07:28:23.797Z,1.40
2023-04-20T07:29:25.669Z,1.50
2023-04-20T07:30:27.634Z,1.40
2023-04-20T07:31:29.514Z,1.37
2023-04-20T07:32:31.431Z,1.30
2023-04-20T07:33:35.614Z,1.10
2023-04-20T07:34:37.469Z,1.20
2023-04-20T07:35:39.242Z,1.33
2023-04-20T07:36:41.454Z,1.20
2023-04-20T07:37:43.344Z,1.33
2023-04-20T07:38:45.228Z,1.13
2023-04-20T07:39:47.030Z,1.23
2023-04-20T07:40:48.877Z,1.30
2023-04-20T07:41:50.737Z,1.40
2023-04-20T07:42:52.562Z,1.00
2023-04-20T07:43:54.377Z,1.20
2023-04-20T07:44:56.317Z,1.37
2023-04-20T07:45:58.237Z,1.60
2023-04-20T07:47:00.937Z,1.20
2023-04-20T07:48:05.596Z,1.33
2023-04-20T07:49:07.578Z,1.30
2023-04-20T07:50:09.597Z,1.40
2023-04-20T07:51:11.458Z,1.20
2023-04-20T07:52:16.923Z,1.43
2023-04-20T07:53:19.680Z,1.43
2023-04-20T07:54:21.530Z,1.53
2023-04-20T07:55:23.436Z,1.70
2023-04-20T07:56:26.084Z,1.73
2023-04-20T07:57:29.404Z,1.70
2023-04-20T07:58:31.325Z,2.00
2023-04-20T07:59:33.159Z,1.70
2023-04-20T08:00:34.958Z,1.90
2023-04-20T08:01:36.898Z,1.97
2023-04-20T08:02:38.966Z,1.60
2023-04-20T08:03:41.776Z,2.03
2023-04-20T08:04:47.207Z,1.83
2023-04-20T08:05:49.321Z,2.20
2023-04-20T08:06:51.227Z,1.97
2023-04-20T08:07:53.042Z,1.83
2023-04-20T08:08:54.901Z,1.90
2023-04-20T08:10:01.388Z,2.10
2023-04-20T08:11:03.363Z,1.73
2023-04-20T08:12:05.832Z,1.77
2023-04-20T08:13:08.173Z,1.87
2023-04-20T08:14:10.046Z,1.70
2023-04-20T08:15:12.108Z,2.30
2023-04-20T08:16:13.980Z,1.70
2023-04-20T08:17:16.069Z,1.53
2023-04-20T08:18:18.648Z,1.67
2023-04-20T08:19:21.599Z,1.70
2023-04-20T08:20:23.541Z,1.70
2023-04-20T08:21:26.514Z,1.53
2023-04-20T08:22:30.395Z,1.70
2023-04-20T08:23:32.522Z,1.80
2023-04-20T08:24:34.740Z,1.53
2023-04-20T08:25:40.937Z,1.70
2023-04-20T08:26:43.910Z,1.70
2023-04-20T08:27:47.088Z,1.67
2023-04-20T08:28:49.105Z,1.60
2023-04-20T08:29:51.221Z,1.63
2023-04-20T08:30:53.904Z,1.50
2023-04-20T08:31:56.276Z,1.40
2023-04-20T08:32:59.342Z,1.70
2023-04-20T08:34:01.546Z,1.50
2023-04-20T08:35:04.752Z,1.67
2023-04-20T08:36:06.979Z,1.40
2023-04-20T08:37:09.362Z,1.50
2023-04-20T08:38:15.639Z,1.47
2023-04-20T08:39:24.307Z,1.80
2023-04-20T08:40:28.487Z,1.50
2023-04-20T08:41:30.755Z,1.87
2023-04-20T08:42:32.822Z,1.80
2023-04-20T08:43:36.213Z,1.60
2023-04-20T08:44:38.126Z,1.60
2023-04-20T08:45:46.513Z,1.83
2023-04-20T08:46:49.310Z,1.60
2023-04-20T08:47:52.364Z,1.57
2023-04-20T08:48:57.221Z,1.40
2023-04-20T08:50:00.829Z,1.50
2023-04-20T08:51:04.821Z,1.77
2023-04-20T08:52:10.736Z,1.40
2023-04-20T08:53:14.185Z,1.50
2023-04-20T08:54:16.772Z,1.33
2023-04-20T08:55:20.267Z,1.47
2023-04-20T08:56:36.373Z,1.60
2023-04-20T08:57:38.341Z,1.33
2023-04-20T08:58:42.263Z,1.70
2023-04-20T08:59:44.173Z,1.30
2023-04-20T09:00:50.061Z,1.80
2023-04-20T09:01:51.925Z,1.40
2023-04-20T09:02:58.864Z,1.50
2023-04-20T09:04:01.493Z,1.60
2023-04-20T09:05:05.204Z,1.40
2023-04-20T09:06:19.024Z,1.30
2023-04-20T09:07:21.952Z,1.20
2023-04-20T09:08:39.842Z,1.50
2023-04-20T09:09:41.669Z,1.50
2023-04-20T09:10:45.093Z,1.50
2023-04-20T09:11:47.652Z,1.53
2023-04-20T09:12:50.109Z,1.20
2023-04-20T09:14:12.330Z,1.50
2023-04-20T09:15:29.632Z,1.40
2023-04-20T09:16:32.287Z,1.40
2023-04-20T09:17:37.387Z,1.27
2023-04-20T09:18:39.608Z,1.50
2023-04-20T09:19:44.997Z,1.43
2023-04-20T09:20:47.207Z,1.30
2023-04-20T09:21:51.354Z,1.30
2023-04-20T09:22:54.322Z,1.40
2023-04-20T09:23:57.031Z,1.60
2023-04-20T09:24:59.658Z,1.17
2023-04-20T09:26:01.784Z,1.50
2023-04-20T09:27:16.773Z,1.60
2023-04-20T09:28:20.250Z,1.40
2023-04-20T09:29:24.124Z,1.50
2023-04-20T09:30:37.441Z,1.40
2023-04-20T09:31:39.363Z,1.70
2023-04-20T09:32:41.442Z,1.40
2023-04-20T09:33:43.358Z,1.40
2023-04-20T09:34:45.242Z,1.30
2023-04-20T09:35:47.658Z,1.30
2023-04-20T09:36:54.318Z,1.07
2023-04-20T09:37:56.353Z,1.57
2023-04-20T09:39:08.771Z,1.40
2023-04-20T09:40:11.743Z,1.43
2023-04-20T09:41:18.215Z,1.53
2023-04-20T09:42:22.150Z,1.60
2023-04-20T09:43:27.622Z,1.37
2023-04-20T09:44:29.640Z,1.30
2023-04-20T09:45:32.456Z,1.10
2023-04-20T09:46:37.849Z,1.30
2023-04-20T09:47:42.939Z,1.50
2023-04-20T09:48:45.258Z,1.13
2023-04-20T09:49:47.616Z,1.37
2023-04-20T09:50:50.953Z,1.30
2023-04-20T09:51:53.732Z,1.30
2023-04-20T09:52:56.941Z,1.40
2023-04-20T09:54:01.589Z,1.30
2023-04-20T09:55:10.340Z,1.23
2023-04-20T09:56:15.674Z,1.37
2023-04-20T09:57:19.439Z,1.20
2023-04-20T09:58:21.877Z,1.20
2023-04-20T09:59:24.782Z,1.30
2023-04-20T10:00:27.201Z,1.50
2023-04-20T10:01:35.874Z,1.40
2023-04-20T10:02:38.536Z,1.40
2023-04-20T10:03:45.778Z,1.50
2023-04-20T10:04:56.236Z,1.40
2023-04-20T10:05:58.286Z,1.40
2023-04-20T10:07:06.029Z,1.20
2023-04-20T10:08:08.200Z,1.30
2023-04-20T10:09:24.666Z,1.30
2023-04-20T10:10:27.250Z,1.20
2023-04-20T10:11:40.498Z,1.20
2023-04-20T10:12:51.172Z,1.10
2023-04-20T10:13:53.362Z,1.27
2023-04-20T10:14:57.911Z,1.10
2023-04-20T10:15:59.945Z,1.40
2023-04-20T10:17:09.150Z,1.37
2023-04-20T10:18:24.734Z,1.47
2023-04-20T10:19:45.991Z,1.30
2023-04-20T10:20:48.249Z,1.13
2023-04-20T10:21:51.394Z,1.20
2023-04-20T10:23:06.103Z,1.50
2023-04-20T10:24:08.329Z,1.33
2023-04-20T10:25:24.371Z,1.20
2023-04-20T10:26:39.694Z,1.33
2023-04-20T10:27:57.900Z,1.33
2023-04-20T10:28:59.674Z,1.30
2023-04-20T10:30:11.810Z,1.50
2023-04-20T10:31:17.334Z,1.40
2023-04-20T10:32:37.496Z,1.17
2023-04-20T10:33:59.569Z,1.30
2023-04-20T10:35:12.571Z,1.20
2023-04-20T10:36:31.322Z,1.37
2023-04-20T10:37:34.152Z,1.60
2023-04-20T10:38:36.686Z,1.60
2023-04-20T10:39:48.389Z,1.30
2023-04-20T10:40:50.550Z,1.43
2023-04-20T10:42:03.598Z,1.80
2023-04-20T10:43:17.422Z,1.50
2023-04-20T10:44:19.405Z,1.10
2023-04-20T10:45:22.072Z,1.20
2023-04-20T10:46:25.439Z,1.40
2023-04-20T10:47:33.085Z,1.50
2023-04-20T10:48:35.008Z,1.40
2023-04-20T10:49:36.795Z,1.60
2023-04-20T10:50:38.893Z,1.40
2023-04-20T10:51:48.409Z,1.40
2023-04-20T10:52:50.471Z,1.50
2023-04-20T10:54:08.767Z,1.20
2023-04-20T10:55:26.379Z,1.60
2023-04-20T10:56:28.422Z,1.20
2023-04-20T10:57:30.330Z,1.23
2023-04-20T10:58:32.316Z,1.20
2023-04-20T10:59:42.752Z,1.30
2023-04-20T11:00:44.882Z,1.50
2023-04-20T11:01:50.738Z,1.00
2023-04-20T11:02:57.572Z,1.20
2023-04-20T11:03:59.788Z,1.23
2023-04-20T11:05:12.592Z,1.30
2023-04-20T11:06:15.638Z,1.10
2023-04-20T11:07:17.540Z,1.27
2023-04-20T11:08:19.737Z,1.20
2023-04-20T11:09:26.643Z,1.10
2023-04-20T11:10:43.619Z,1.07
2023-04-20T11:11:45.994Z,1.37
2023-04-20T11:12:48.114Z,1.10
2023-04-20T11:13:50.219Z,1.30
2023-04-20T11:15:03.016Z,1.20
2023-04-20T11:16:16.910Z,1.47
2023-04-20T11:17:19.672Z,1.30
2023-04-20T11:18:21.945Z,1.20
2023-04-20T11:19:30.205Z,1.10
2023-04-20T11:20:32.060Z,1.30
2023-04-20T11:21:39.944Z,1.30
2023-04-20T11:22:43.806Z,1.40
2023-04-20T11:23:46.205Z,1.40
2023-04-20T11:24:48.076Z,1.07
2023-04-20T11:25:56.054Z,1.40
2023-04-20T11:26:58.847Z,1.20
2023-04-20T11:28:10.078Z,1.33
2023-04-20T11:29:12.697Z,1.43
2023-04-20T11:30:14.893Z,1.30
2023-04-20T11:31:18.647Z,1.20
2023-04-20T11:32:21.131Z,1.63
2023-04-20T11:33:33.164Z,1.30
2023-04-20T11:34:38.245Z,1.30
2023-04-20T11:35:42.664Z,1.33
2023-04-20T11:36:46.467Z,1.30
2023-04-20T11:37:51.501Z,1.30
2023-04-20T11:38:53.565Z,1.17
2023-04-20T11:40:09.614Z,1.10
2023-04-20T11:41:11.638Z,1.10
2023-04-20T11:42:13.566Z,1.30
2023-04-20T11:43:15.751Z,1.40
2023-04-20T11:44:17.821Z,1.30
2023-04-20T11:45:19.772Z,1.20
2023-04-20T11:46:21.924Z,1.10
2023-04-20T11:47:24.359Z,1.13
2023-04-20T11:48:27.588Z,1.37
2023-04-20T11:49:29.749Z,1.30
2023-04-20T11:50:31.927Z,1.20
2023-04-20T11:51:34.114Z,1.27
2023-04-20T11:52:36.322Z,1.20
2023-04-20T11:53:38.159Z,1.47
2023-04-20T11:54:39.978Z,1.10
2023-04-20T11:55:42.120Z,1.00
2023-04-20T11:56:44.901Z,1.20
2023-04-20T11:57:46.796Z,1.20
2023-04-20T11:58:48.908Z,1.37
2023-04-20T11:59:50.801Z,1.43
2023-04-20T12:00:52.685Z,1.10
2023-04-20T12:01:54.695Z,1.20
2023-04-20T12:02:56.854Z,1.20
2023-04-20T12:04:01.905Z,1.07
2023-04-20T12:05:04.640Z,1.30
2023-04-20T12:06:06.732Z,0.90
2023-04-20T12:07:08.753Z,1.27
2023-04-20T12:08:10.880Z,1.10
2023-04-20T12:09:13.780Z,1.33
2023-04-20T12:10:15.651Z,1.10
2023-04-20T12:11:17.715Z,1.30
2023-04-20T12:12:19.903Z,1.30
2023-04-20T12:13:21.772Z,1.13
2023-04-20T12:14:23.597Z,1.00
2023-04-20T12:15:25.944Z,1.30
2023-04-20T12:16:27.922Z,1.13
2023-04-20T12:17:30.114Z,1.27
2023-04-20T12:18:31.955Z,1.33
2023-04-20T12:19:34.050Z,1.10
2023-04-20T12:20:36.017Z,1.20
2023-04-20T12:21:37.859Z,1.10
2023-04-20T12:22:39.698Z,1.30
2023-04-20T12:23:42.738Z,1.37
2023-04-20T12:24:44.867Z,1.20
2023-04-20T12:25:46.916Z,1.90
2023-04-20T12:26:48.946Z,1.80
2023-04-20T12:27:50.905Z,1.93
2023-04-20T12:28:53.320Z,1.60
2023-04-20T12:29:55.458Z,1.87
2023-04-20T12:30:57.681Z,2.67
2023-04-20T12:32:00.194Z,1.90
2023-04-20T12:33:05.502Z,1.80
2023-04-20T12:34:07.464Z,1.90
2023-04-20T12:35:09.742Z,1.80
2023-04-20T12:36:11.529Z,1.80
2023-04-20T12:37:15.108Z,2.17
2023-04-20T12:38:18.136Z,2.17
2023-04-20T12:39:19.958Z,2.10
2023-04-20T12:40:23.050Z,2.23
2023-04-20T12:41:25.424Z,2.20
2023-04-20T12:42:27.404Z,2.10
2023-04-20T12:43:30.831Z,1.83
2023-04-20T12:44:32.994Z,2.00
2023-04-20T12:45:35.735Z,1.90
2023-04-20T12:46:37.624Z,1.70
2023-04-20T12:47:39.745Z,2.10
2023-04-20T12:48:41.611Z,2.20
2023-04-20T12:49:43.689Z,1.93
2023-04-20T12:50:45.567Z,1.83
2023-04-20T12:51:47.463Z,2.20
2023-04-20T12:52:49.355Z,2.07
2023-04-20T12:53:51.604Z,1.80
2023-04-20T12:54:53.647Z,1.80
2023-04-20T12:56:01.054Z,1.80
2023-04-20T12:57:03.623Z,1.80
2023-04-20T12:58:06.273Z,1.97
2023-04-20T12:59:08.294Z,2.10
2023-04-20T13:00:14.474Z,1.90
2023-04-20T13:01:16.833Z,1.90
2023-04-20T13:02:19.643Z,2.20
2023-04-20T13:03:22.179Z,1.80
2023-04-20T13:04:24.835Z,2.00
2023-04-20T13:05:27.580Z,1.83
2023-04-20T13:06:29.548Z,2.23
2023-04-20T13:07:32.232Z,1.60
2023-04-20T13:08:34.558Z,1.83
2023-04-20T13:09:36.690Z,1.70
2023-04-20T13:10:43.137Z,1.63
2023-04-20T13:11:45.593Z,1.80
2023-04-20T13:12:47.705Z,2.10
2023-04-20T13:13:49.630Z,2.10
2023-04-20T13:14:52.125Z,2.00
2023-04-20T13:15:54.928Z,2.00
2023-04-20T13:16:56.974Z,2.30
2023-04-20T13:17:59.029Z,2.20
2023-04-20T13:19:01.554Z,2.10
2023-04-20T13:20:04.965Z,1.43
2023-04-20T13:21:07.538Z,1.60
2023-04-20T13:22:09.489Z,1.40
2023-04-20T13:23:11.895Z,1.37
2023-04-20T13:24:13.767Z,1.53
2023-04-20T13:25:16.882Z,1.23
2023-04-20T13:26:18.868Z,1.47
2023-04-20T13:27:21.106Z,1.63
2023-04-20T13:28:25.626Z,1.40
2023-04-20T13:29:28.218Z,1.30
2023-04-20T13:30:30.712Z,1.40
2023-04-20T13:31:33.348Z,1.27
2023-04-20T13:32:38.253Z,1.40
2023-04-20T13:33:40.816Z,1.40
2023-04-20T13:34:42.932Z,1.47
2023-04-20T13:35:44.756Z,1.30
2023-04-20T13:36:47.109Z,1.30
2023-04-20T13:37:49.106Z,1.03
2023-04-20T13:38:55.714Z,1.10
2023-04-20T13:39:57.552Z,1.40
2023-04-20T13:40:59.744Z,1.37
2023-04-20T13:42:02.157Z,1.27
2023-04-20T13:43:04.762Z,1.10
2023-04-20T13:44:07.868Z,1.20
2023-04-20T13:45:10.660Z,1.10
2023-04-20T13:46:12.711Z,0.97
2023-04-20T13:47:14.976Z,1.10
2023-04-20T13:48:17.095Z,0.90
2023-04-20T13:49:23.026Z,0.80
2023-04-20T13:50:25.005Z,1.27
2023-04-20T13:51:27.207Z,1.20
2023-04-20T13:52:29.345Z,1.00
2023-04-20T13:53:31.149Z,0.93
2023-04-20T13:54:33.134Z,0.93
2023-04-20T13:55:35.133Z,1.00
2023-04-20T13:56:36.984Z,1.10
2023-04-20T13:57:38.875Z,1.10
2023-04-20T13:58:40.821Z,1.23
2023-04-20T13:59:42.977Z,0.90
2023-04-20T14:00:45.056Z,0.93